Decoded Metar for LZTT (POPRAD in SLOVAKIA) (IATA:TAT) | Meteo·Mobile Aviation Weather
aviador You're here:

LZTT Decoded Metar

POPRAD in SLOVAKIA
Report Time2019-07-16 10:00:00
UTC Time2019-07-16 10:19:20
Flight Rules vfr VFR
Wind260° at 08 kt
W.Decomp.*RWY 25: 8.0 kt HW 0.8 kt RCW
RWY 27: 7.8 kt HW 1.9 kt LCW
Visibility9999 m
Phenomena:N/A
Clouds:Scattered 056 Hf
Expected CloudBase > 6,000 ft AGL from Temp-Dew spread
CeilingNone
Temp22°C (ISA +12)
Dew Point07°C (38% RH)
AAT18.4°C
QNH1013 hPa
Density Alt3,806 ft
Elevation2,320 ft
Report Wrong Elevation
Raw Report
LZTT 161000Z 26008KT 220V300 9999 SCT056 22/07 Q1013 NOSIG=

Extra information for LZTT:More info

Metar Taf Metar & Taf Last 4 Metars F.Rules Stats Wind Profile Meteogram Temp Stats Airport Information Weather charts Add Link Nearby VenuesMetar ALERT Operation Metar Decoded Social comments